Noyes, Pennsylvania
Current Conditions -  °F | °C
As of 6:15 AM on Thursday 23 Oct 2014 (Local Time) from KN38 Reporting Station
Overcast Overcast  
Wind Chill: 35°   Ceiling: 1000
Heat Index: 43°   Visibility: 10mi
Dew Point: 39°   Wind: 15mph
Humidity: 87%   Direction: 350°N
Pressure: 29.99"   Gusts: 36mph
Location:  41.3916°N, 77.7796°W
Report Text: KN38 231015Z AUTO 35013G31KT 10SM OVC010 06/04 A2999 RMK AO2
Loading
Personal Weather Stations






























Interactive Weather Map
Tropical Storm Tracking
New forecast layout! Learn more

10-Day Weather Forecast

Advertisements
Track Severe Weather on mobile